sensor_id;sensor_type;location;lat;lon;timestamp;pressure;altitude;pressure_sealevel;temperature;humidity
18275;BME280;19470;49.322;7.218;2024-01-06T00:00:58;97545.19;;;8.38;81.13
18275;BME280;19470;49.322;7.218;2024-01-06T00:03:30;97541.25;;;8.45;82.35
18275;BME280;19470;49.322;7.218;2024-01-06T00:05:57;97550.09;;;7.92;85.78
18275;BME280;19470;49.322;7.218;2024-01-06T00:11:46;97539.59;;;8.34;80.61
18275;BME280;19470;49.322;7.218;2024-01-06T00:14:16;97545.47;;;8.41;80.15
18275;BME280;19470;49.322;7.218;2024-01-06T00:16:43;97546.94;;;8.69;78.76
18275;BME280;19470;49.322;7.218;2024-01-06T00:19:09;97557.00;;;8.35;81.29
18275;BME280;19470;49.322;7.218;2024-01-06T00:21:37;97556.44;;;8.28;81.70
18275;BME280;19470;49.322;7.218;2024-01-06T00:24:04;97548.91;;;8.94;79.84
18275;BME280;19470;49.322;7.218;2024-01-06T00:26:30;97555.97;;;8.36;80.29
18275;BME280;19470;49.322;7.218;2024-01-06T00:28:59;97552.19;;;8.64;78.23
18275;BME280;19470;49.322;7.218;2024-01-06T00:31:27;97561.44;;;8.25;79.53
18275;BME280;19470;49.322;7.218;2024-01-06T00:33:53;97545.72;;;8.40;79.66
18275;BME280;19470;49.322;7.218;2024-01-06T00:36:20;97542.81;;;8.04;81.46
18275;BME280;19470;49.322;7.218;2024-01-06T00:38:46;97543.44;;;8.16;81.68
18275;BME280;19470;49.322;7.218;2024-01-06T00:41:13;97543.91;;;7.76;83.59
18275;BME280;19470;49.322;7.218;2024-01-06T00:43:42;97546.28;;;8.10;84.44
18275;BME280;19470;49.322;7.218;2024-01-06T00:46:09;97540.81;;;8.22;82.94
18275;BME280;19470;49.322;7.218;2024-01-06T00:48:38;97550.72;;;8.04;84.46
18275;BME280;19470;49.322;7.218;2024-01-06T00:51:06;97552.44;;;8.20;83.64
18275;BME280;19470;49.322;7.218;2024-01-06T00:53:32;97548.84;;;8.37;82.42
18275;BME280;19470;49.322;7.218;2024-01-06T00:56:02;97562.03;;;8.37;82.56
18275;BME280;19470;49.322;7.218;2024-01-06T00:58:28;97548.78;;;8.74;80.92
18275;BME280;19470;49.322;7.218;2024-01-06T01:00:55;97556.59;;;9.06;79.67
18275;BME280;19470;49.322;7.218;2024-01-06T01:03:22;97559.66;;;8.83;79.69
18275;BME280;19470;49.322;7.218;2024-01-06T01:05:50;97558.38;;;8.90;81.02
18275;BME280;19470;49.322;7.218;2024-01-06T01:08:17;97563.44;;;9.07;81.91
18275;BME280;19470;49.322;7.218;2024-01-06T01:10:43;97565.75;;;8.88;82.37
18275;BME280;19470;49.322;7.218;2024-01-06T01:13:10;97576.16;;;9.15;82.11
18275;BME280;19470;49.322;7.218;2024-01-06T01:15:36;97569.31;;;9.25;83.71
18275;BME280;19470;49.322;7.218;2024-01-06T01:18:03;97573.56;;;9.26;82.24
18275;BME280;19470;49.322;7.218;2024-01-06T01:20:33;97562.75;;;9.27;83.92
18275;BME280;19470;49.322;7.218;2024-01-06T01:23:01;97578.63;;;9.42;83.66
18275;BME280;19470;49.322;7.218;2024-01-06T01:25:28;97574.88;;;9.18;85.42
18275;BME280;19470;49.322;7.218;2024-01-06T01:27:55;97570.91;;;9.26;85.19
18275;BME280;19470;49.322;7.218;2024-01-06T01:30:21;97579.44;;;9.63;83.34
18275;BME280;19470;49.322;7.218;2024-01-06T01:32:48;97582.06;;;9.43;85.00
18275;BME280;19470;49.322;7.218;2024-01-06T01:35:14;97586.75;;;9.20;86.95
18275;BME280;19470;49.322;7.218;2024-01-06T01:37:41;97599.53;;;9.54;85.88
18275;BME280;19470;49.322;7.218;2024-01-06T01:40:09;97590.00;;;9.58;86.12
18275;BME280;19470;49.322;7.218;2024-01-06T01:42:36;97591.84;;;9.47;85.91
18275;BME280;19470;49.322;7.218;2024-01-06T01:45:03;97585.31;;;10.01;83.55
18275;BME280;19470;49.322;7.218;2024-01-06T01:47:29;97601.06;;;9.40;87.04
18275;BME280;19470;49.322;7.218;2024-01-06T01:49:56;97598.75;;;9.64;84.71
18275;BME280;19470;49.322;7.218;2024-01-06T01:52:23;97594.28;;;9.75;85.38
18275;BME280;19470;49.322;7.218;2024-01-06T01:54:50;97587.66;;;9.67;85.33
18275;BME280;19470;49.322;7.218;2024-01-06T01:57:20;97593.72;;;9.52;85.70
18275;BME280;19470;49.322;7.218;2024-01-06T01:59:47;97596.38;;;9.78;84.48
18275;BME280;19470;49.322;7.218;2024-01-06T02:02:14;97593.91;;;9.30;87.57
18275;BME280;19470;49.322;7.218;2024-01-06T02:04:41;97590.56;;;9.65;85.83
18275;BME280;19470;49.322;7.218;2024-01-06T02:07:07;97598.44;;;9.40;86.13
18275;BME280;19470;49.322;7.218;2024-01-06T02:09:33;97598.00;;;10.14;82.83
18275;BME280;19470;49.322;7.218;2024-01-06T02:12:00;97595.56;;;9.52;85.64
18275;BME280;19470;49.322;7.218;2024-01-06T02:14:28;97596.31;;;9.32;88.89
18275;BME280;19470;49.322;7.218;2024-01-06T02:16:54;97596.44;;;10.03;83.08
18275;BME280;19470;49.322;7.218;2024-01-06T02:19:21;97598.50;;;9.60;86.29
18275;BME280;19470;49.322;7.218;2024-01-06T02:21:51;97592.97;;;9.82;83.48
18275;BME280;19470;49.322;7.218;2024-01-06T02:24:18;97601.72;;;10.44;81.42
18275;BME280;19470;49.322;7.218;2024-01-06T02:26:45;97594.88;;;10.28;82.84
18275;BME280;19470;49.322;7.218;2024-01-06T02:29:11;97595.88;;;10.06;84.37
18275;BME280;19470;49.322;7.218;2024-01-06T02:31:38;97605.63;;;10.87;78.44
18275;BME280;19470;49.322;7.218;2024-01-06T02:34:04;97590.97;;;11.15;77.34
18275;BME280;19470;49.322;7.218;2024-01-06T02:36:31;97604.81;;;10.92;77.63
18275;BME280;19470;49.322;7.218;2024-01-06T02:38:59;97603.81;;;10.57;79.59
18275;BME280;19470;49.322;7.218;2024-01-06T02:41:25;97600.34;;;10.82;78.00
18275;BME280;19470;49.322;7.218;2024-01-06T02:43:54;97605.84;;;10.91;78.36
18275;BME280;19470;49.322;7.218;2024-01-06T02:46:20;97609.31;;;10.96;77.20
18275;BME280;19470;49.322;7.218;2024-01-06T02:48:47;97611.22;;;10.60;79.29
18275;BME280;19470;49.322;7.218;2024-01-06T02:51:13;97613.88;;;10.65;78.18
18275;BME280;19470;49.322;7.218;2024-01-06T02:53:40;97610.00;;;11.17;76.78
18275;BME280;19470;49.322;7.218;2024-01-06T02:56:10;97631.72;;;11.24;76.64
18275;BME280;19470;49.322;7.218;2024-01-06T02:58:37;97630.75;;;10.95;77.28
18275;BME280;19470;49.322;7.218;2024-01-06T03:01:04;97637.41;;;10.67;78.32
18275;BME280;19470;49.322;7.218;2024-01-06T03:03:30;97642.72;;;10.82;78.37
18275;BME280;19470;49.322;7.218;2024-01-06T03:05:57;97644.28;;;10.88;77.69
18275;BME280;19470;49.322;7.218;2024-01-06T03:08:23;97643.81;;;10.56;79.24
18275;BME280;19470;49.322;7.218;2024-01-06T03:10:50;97647.50;;;10.65;79.54
18275;BME280;19470;49.322;7.218;2024-01-06T03:13:18;97644.53;;;10.82;78.61
18275;BME280;19470;49.322;7.218;2024-01-06T03:15:44;97642.22;;;10.44;81.41
18275;BME280;19470;49.322;7.218;2024-01-06T03:18:11;97641.38;;;10.85;78.24
18275;BME280;19470;49.322;7.218;2024-01-06T03:20:37;97640.25;;;11.06;77.75
18275;BME280;19470;49.322;7.218;2024-01-06T03:23:03;97644.53;;;10.92;78.38
18275;BME280;19470;49.322;7.218;2024-01-06T03:25:30;97639.84;;;10.63;79.51
18275;BME280;19470;49.322;7.218;2024-01-06T03:27:57;97639.81;;;10.48;79.74
18275;BME280;19470;49.322;7.218;2024-01-06T03:30:27;97641.28;;;11.15;76.66
18275;BME280;19470;49.322;7.218;2024-01-06T03:32:54;97645.53;;;11.16;77.16
18275;BME280;19470;49.322;7.218;2024-01-06T03:35:20;97649.69;;;11.33;75.62
18275;BME280;19470;49.322;7.218;2024-01-06T03:37:47;97646.34;;;11.66;74.95
18275;BME280;19470;49.322;7.218;2024-01-06T03:40:13;97648.16;;;11.81;73.42
18275;BME280;19470;49.322;7.218;2024-01-06T03:42:40;97648.41;;;11.80;73.16
18275;BME280;19470;49.322;7.218;2024-01-06T03:45:07;97653.63;;;11.45;75.32
18275;BME280;19470;49.322;7.218;2024-01-06T03:47:35;97649.56;;;11.63;75.00
18275;BME280;19470;49.322;7.218;2024-01-06T03:50:02;97655.94;;;11.57;75.52
18275;BME280;19470;49.322;7.218;2024-01-06T03:52:28;97654.00;;;11.78;74.11
18275;BME280;19470;49.322;7.218;2024-01-06T03:54:54;97645.75;;;11.30;76.50
18275;BME280;19470;49.322;7.218;2024-01-06T03:57:21;97649.75;;;11.22;76.08
18275;BME280;19470;49.322;7.218;2024-01-06T03:59:47;97647.47;;;11.55;75.61
18275;BME280;19470;49.322;7.218;2024-01-06T04:02:14;97654.00;;;11.83;74.45
18275;BME280;19470;49.322;7.218;2024-01-06T04:04:42;97656.06;;;11.91;74.07
18275;BME280;19470;49.322;7.218;2024-01-06T04:07:08;97655.31;;;11.86;73.67
18275;BME280;19470;49.322;7.218;2024-01-06T04:09:34;97652.84;;;11.40;75.61
18275;BME280;19470;49.322;7.218;2024-01-06T04:12:01;97655.22;;;11.46;77.21
18275;BME280;19470;49.322;7.218;2024-01-06T04:14:27;97650.38;;;11.59;75.48
18275;BME280;19470;49.322;7.218;2024-01-06T04:16:54;97655.22;;;11.46;75.73
18275;BME280;19470;49.322;7.218;2024-01-06T04:19:21;97652.94;;;11.24;77.36
18275;BME280;19470;49.322;7.218;2024-01-06T04:21:49;97648.56;;;11.49;77.09
18275;BME280;19470;49.322;7.218;2024-01-06T04:24:16;97650.28;;;11.84;74.77
18275;BME280;19470;49.322;7.218;2024-01-06T04:26:42;97656.09;;;11.81;75.09
18275;BME280;19470;49.322;7.218;2024-01-06T04:29:10;97655.31;;;11.86;74.69
18275;BME280;19470;49.322;7.218;2024-01-06T04:31:37;97656.50;;;12.03;73.83
18275;BME280;19470;49.322;7.218;2024-01-06T04:34:03;97656.50;;;12.03;73.84
18275;BME280;19470;49.322;7.218;2024-01-06T04:36:30;97667.91;;;12.09;72.99
18275;BME280;19470;49.322;7.218;2024-01-06T04:38:57;97659.19;;;11.49;74.72
18275;BME280;19470;49.322;7.218;2024-01-06T04:41:23;97664.13;;;11.66;74.47
18275;BME280;19470;49.322;7.218;2024-01-06T04:43:49;97666.78;;;10.86;78.48
18275;BME280;19470;49.322;7.218;2024-01-06T04:46:16;97670.88;;;11.48;75.87
18275;BME280;19470;49.322;7.218;2024-01-06T04:48:42;97661.44;;;11.16;77.27
18275;BME280;19470;49.322;7.218;2024-01-06T04:51:09;97664.66;;;10.93;78.40
18275;BME280;19470;49.322;7.218;2024-01-06T04:53:36;97670.63;;;11.29;77.59
18275;BME280;19470;49.322;7.218;2024-01-06T04:56:04;97672.63;;;10.67;79.60
18275;BME280;19470;49.322;7.218;2024-01-06T04:58:31;97671.84;;;10.62;80.42
18275;BME280;19470;49.322;7.218;2024-01-06T05:00:57;97673.66;;;10.97;79.22
18275;BME280;19470;49.322;7.218;2024-01-06T05:06:45;97679.53;;;10.73;80.81
18275;BME280;19470;49.322;7.218;2024-01-06T05:09:12;97680.31;;;10.79;81.04
18275;BME280;19470;49.322;7.218;2024-01-06T05:11:40;97679.25;;;10.70;82.40
18275;BME280;19470;49.322;7.218;2024-01-06T05:14:06;97684.28;;;10.56;80.90
18275;BME280;19470;49.322;7.218;2024-01-06T05:16:33;97687.44;;;10.17;86.35
18275;BME280;19470;49.322;7.218;2024-01-06T05:18:59;97688.78;;;10.30;84.40
18275;BME280;19470;49.322;7.218;2024-01-06T05:21:25;97690.66;;;10.45;84.04
18275;BME280;19470;49.322;7.218;2024-01-06T05:23:52;97688.38;;;9.70;87.97
18275;BME280;19470;49.322;7.218;2024-01-06T05:26:18;97692.44;;;10.14;87.22
18275;BME280;19470;49.322;7.218;2024-01-06T05:28:46;97692.25;;;10.51;83.77
18275;BME280;19470;49.322;7.218;2024-01-06T05:31:13;97688.41;;;9.86;87.58
18275;BME280;19470;49.322;7.218;2024-01-06T05:33:39;97688.63;;;9.64;88.56
18275;BME280;19470;49.322;7.218;2024-01-06T05:36:06;97687.91;;;9.84;87.79
18275;BME280;19470;49.322;7.218;2024-01-06T05:38:44;97686.06;;;9.21;93.77
18275;BME280;19470;49.322;7.218;2024-01-06T05:41:11;97677.53;;;9.67;89.68
18275;BME280;19470;49.322;7.218;2024-01-06T05:43:37;97689.38;;;9.54;90.81
18275;BME280;19470;49.322;7.218;2024-01-06T05:46:05;97676.06;;;9.29;92.47
18275;BME280;19470;49.322;7.218;2024-01-06T05:48:32;97678.22;;;9.37;92.59
18275;BME280;19470;49.322;7.218;2024-01-06T05:50:58;97674.88;;;9.62;91.68
18275;BME280;19470;49.322;7.218;2024-01-06T05:53:25;97670.38;;;9.62;89.87
18275;BME280;19470;49.322;7.218;2024-01-06T05:55:52;97675.94;;;9.66;91.61
18275;BME280;19470;49.322;7.218;2024-01-06T05:58:18;97680.34;;;9.45;93.34
18275;BME280;19470;49.322;7.218;2024-01-06T06:00:45;97686.09;;;10.10;88.45
18275;BME280;19470;49.322;7.218;2024-01-06T06:03:13;97673.19;;;10.29;86.87
18275;BME280;19470;49.322;7.218;2024-01-06T06:05:40;97686.91;;;10.77;84.56
18275;BME280;19470;49.322;7.218;2024-01-06T06:08:06;97688.72;;;9.94;90.50
18275;BME280;19470;49.322;7.218;2024-01-06T06:10:33;97695.97;;;10.45;86.27
18275;BME280;19470;49.322;7.218;2024-01-06T06:13:16;97703.34;;;10.58;85.43
18275;BME280;19470;49.322;7.218;2024-01-06T06:15:43;97698.25;;;10.01;89.87
18275;BME280;19470;49.322;7.218;2024-01-06T06:18:09;97698.25;;;10.11;89.98
18275;BME280;19470;49.322;7.218;2024-01-06T06:20:37;97715.47;;;9.40;93.36
18275;BME280;19470;49.322;7.218;2024-01-06T06:23:03;97710.69;;;10.15;90.10
18275;BME280;19470;49.322;7.218;2024-01-06T06:25:30;97711.81;;;10.81;84.54
18275;BME280;19470;49.322;7.218;2024-01-06T06:27:56;97715.00;;;10.78;84.40
18275;BME280;19470;49.322;7.218;2024-01-06T06:30:23;97719.78;;;10.40;87.71
18275;BME280;19470;49.322;7.218;2024-01-06T06:32:49;97726.56;;;10.10;90.39
18275;BME280;19470;49.322;7.218;2024-01-06T06:35:15;97727.19;;;10.73;84.98
18275;BME280;19470;49.322;7.218;2024-01-06T06:37:43;97730.34;;;10.70;86.29
18275;BME280;19470;49.322;7.218;2024-01-06T06:40:10;97733.47;;;10.21;87.83
18275;BME280;19470;49.322;7.218;2024-01-06T06:42:37;97735.66;;;10.60;87.43
18275;BME280;19470;49.322;7.218;2024-01-06T06:45:04;97735.56;;;10.19;89.20
18275;BME280;19470;49.322;7.218;2024-01-06T06:47:31;97738.81;;;10.72;87.58
18275;BME280;19470;49.322;7.218;2024-01-06T06:49:57;97742.00;;;10.80;84.87
18275;BME280;19470;49.322;7.218;2024-01-06T06:52:24;97744.13;;;10.47;87.75
18275;BME280;19470;49.322;7.218;2024-01-06T06:54:52;97755.75;;;10.41;87.64
18275;BME280;19470;49.322;7.218;2024-01-06T06:57:19;97758.41;;;10.41;87.62
18275;BME280;19470;49.322;7.218;2024-01-06T06:59:46;97757.38;;;10.98;84.85
18275;BME280;19470;49.322;7.218;2024-01-06T07:02:12;97757.38;;;10.78;86.38
18275;BME280;19470;49.322;7.218;2024-01-06T07:04:39;97766.13;;;10.88;84.43
18275;BME280;19470;49.322;7.218;2024-01-06T07:07:05;97764.50;;;10.57;85.31
18275;BME280;19470;49.322;7.218;2024-01-06T07:09:32;97761.63;;;10.84;86.51
18275;BME280;19470;49.322;7.218;2024-01-06T07:12:00;97772.19;;;10.99;84.35
18275;BME280;19470;49.322;7.218;2024-01-06T07:14:26;97774.03;;;10.63;85.60
18275;BME280;19470;49.322;7.218;2024-01-06T07:16:52;97770.63;;;10.93;84.76
18275;BME280;19470;49.322;7.218;2024-01-06T07:19:19;97775.63;;;11.20;83.39
18275;BME280;19470;49.322;7.218;2024-01-06T07:21:45;97774.75;;;11.50;81.58
18275;BME280;19470;49.322;7.218;2024-01-06T07:24:12;97783.84;;;11.13;82.74
18275;BME280;19470;49.322;7.218;2024-01-06T07:26:38;97785.44;;;11.09;84.75
18275;BME280;19470;49.322;7.218;2024-01-06T07:29:06;97785.97;;;11.11;83.99
18275;BME280;19470;49.322;7.218;2024-01-06T07:31:33;97794.25;;;11.95;79.37
18275;BME280;19470;49.322;7.218;2024-01-06T07:34:00;97795.56;;;12.02;77.79
18275;BME280;19470;49.322;7.218;2024-01-06T07:36:27;97797.84;;;11.49;80.80
18275;BME280;19470;49.322;7.218;2024-01-06T07:38:54;97802.41;;;10.83;84.76
18275;BME280;19470;49.322;7.218;2024-01-06T07:41:21;97811.38;;;11.22;82.71
18275;BME280;19470;49.322;7.218;2024-01-06T07:43:47;97817.75;;;11.11;84.17
18275;BME280;19470;49.322;7.218;2024-01-06T07:46:15;97823.59;;;11.13;84.16
18275;BME280;19470;49.322;7.218;2024-01-06T07:48:42;97826.50;;;11.07;84.23
18275;BME280;19470;49.322;7.218;2024-01-06T07:51:09;97827.56;;;11.16;84.12
18275;BME280;19470;49.322;7.218;2024-01-06T07:53:35;97829.94;;;10.97;84.82
18275;BME280;19470;49.322;7.218;2024-01-06T07:56:02;97829.69;;;10.98;84.77
18275;BME280;19470;49.322;7.218;2024-01-06T07:58:28;97830.88;;;10.24;90.33
18275;BME280;19470;49.322;7.218;2024-01-06T08:00:55;97836.84;;;11.13;84.44
18275;BME280;19470;49.322;7.218;2024-01-06T08:03:22;97834.44;;;10.91;85.56
18275;BME280;19470;49.322;7.218;2024-01-06T08:05:50;97828.38;;;11.16;83.59
18275;BME280;19470;49.322;7.218;2024-01-06T08:08:16;97835.22;;;11.43;82.38
18275;BME280;19470;49.322;7.218;2024-01-06T08:10:44;97844.00;;;10.97;84.59
18275;BME280;19470;49.322;7.218;2024-01-06T08:13:10;97844.25;;;11.11;83.78
18275;BME280;19470;49.322;7.218;2024-01-06T08:15:38;97839.22;;;11.10;84.45
18275;BME280;19470;49.322;7.218;2024-01-06T08:18:04;97848.72;;;11.51;82.58
18275;BME280;19470;49.322;7.218;2024-01-06T08:20:32;97848.22;;;11.34;83.46
18275;BME280;19470;49.322;7.218;2024-01-06T08:22:59;97843.97;;;11.43;82.72
18275;BME280;19470;49.322;7.218;2024-01-06T08:25:50;97850.09;;;11.39;83.09
18275;BME280;19470;49.322;7.218;2024-01-06T08:28:17;97851.34;;;11.72;81.41
18275;BME280;19470;49.322;7.218;2024-01-06T08:30:44;97855.88;;;11.61;81.82
18275;BME280;19470;49.322;7.218;2024-01-06T08:33:11;97857.97;;;11.69;82.07
18275;BME280;19470;49.322;7.218;2024-01-06T08:35:38;97861.16;;;10.64;86.80
18275;BME280;19470;49.322;7.218;2024-01-06T08:38:05;97864.78;;;10.43;89.69
18275;BME280;19470;49.322;7.218;2024-01-06T08:40:32;97867.56;;;11.50;84.32
18275;BME280;19470;49.322;7.218;2024-01-06T08:42:59;97868.63;;;11.13;84.94
18275;BME280;19470;49.322;7.218;2024-01-06T08:45:25;97875.50;;;11.19;85.33
18275;BME280;19470;49.322;7.218;2024-01-06T08:47:51;97868.38;;;11.35;83.96
18275;BME280;19470;49.322;7.218;2024-01-06T08:50:18;97875.97;;;10.65;87.11
18275;BME280;19470;49.322;7.218;2024-01-06T08:52:46;97871.78;;;11.05;87.47
18275;BME280;19470;49.322;7.218;2024-01-06T08:55:12;97873.66;;;11.10;86.50
18275;BME280;19470;49.322;7.218;2024-01-06T08:57:39;97879.50;;;11.17;85.18
18275;BME280;19470;49.322;7.218;2024-01-06T09:00:21;97873.19;;;10.24;91.05
18275;BME280;19470;49.322;7.218;2024-01-06T09:02:47;97883.44;;;10.79;87.69
18275;BME280;19470;49.322;7.218;2024-01-06T09:05:14;97884.00;;;11.26;84.90
18275;BME280;19470;49.322;7.218;2024-01-06T09:07:40;97884.53;;;11.03;85.96
18275;BME280;19470;49.322;7.218;2024-01-06T09:10:09;97878.69;;;11.52;83.83
18275;BME280;19470;49.322;7.218;2024-01-06T09:12:35;97887.16;;;11.29;85.67
18275;BME280;19470;49.322;7.218;2024-01-06T09:15:02;97891.94;;;11.62;82.28
18275;BME280;19470;49.322;7.218;2024-01-06T09:17:29;97890.63;;;11.39;84.78
18275;BME280;19470;49.322;7.218;2024-01-06T09:19:56;97888.22;;;11.84;81.29
18275;BME280;19470;49.322;7.218;2024-01-06T09:22:23;97895.13;;;11.64;83.33
18275;BME280;19470;49.322;7.218;2024-01-06T09:24:50;97898.03;;;11.52;83.41
18275;BME280;19470;49.322;7.218;2024-01-06T09:27:18;97890.63;;;11.14;86.45
18275;BME280;19470;49.322;7.218;2024-01-06T09:29:44;97896.47;;;11.21;84.33
18275;BME280;19470;49.322;7.218;2024-01-06T09:32:11;97895.91;;;10.98;86.23
18275;BME280;19470;49.322;7.218;2024-01-06T09:34:38;97896.97;;;11.74;81.73
18275;BME280;19470;49.322;7.218;2024-01-06T09:37:04;97903.06;;;11.13;86.63
18275;BME280;19470;49.322;7.218;2024-01-06T09:39:31;97908.91;;;11.20;84.05
18275;BME280;19470;49.322;7.218;2024-01-06T09:41:57;97906.50;;;11.24;83.44
18275;BME280;19470;49.322;7.218;2024-01-06T09:44:25;97907.84;;;11.32;84.16
18275;BME280;19470;49.322;7.218;2024-01-06T09:46:52;97908.34;;;11.95;81.31
18275;BME280;19470;49.322;7.218;2024-01-06T09:49:23;97909.41;;;11.78;81.90
18275;BME280;19470;49.322;7.218;2024-01-06T09:51:51;97922.69;;;11.73;82.38
18275;BME280;19470;49.322;7.218;2024-01-06T09:54:22;97922.03;;;12.43;79.30
18275;BME280;19470;49.322;7.218;2024-01-06T09:56:49;97917.91;;;11.09;86.57
18275;BME280;19470;49.322;7.218;2024-01-06T09:59:17;97921.31;;;10.79;87.27
18275;BME280;19470;49.322;7.218;2024-01-06T10:01:46;97928.78;;;11.18;85.25
18275;BME280;19470;49.322;7.218;2024-01-06T10:04:12;97919.50;;;11.71;82.45
18275;BME280;19470;49.322;7.218;2024-01-06T10:06:40;97926.16;;;11.48;85.06
18275;BME280;19470;49.322;7.218;2024-01-06T10:09:07;97924.28;;;11.34;86.49
18275;BME280;19470;49.322;7.218;2024-01-06T10:11:35;97928.53;;;11.35;85.53
18275;BME280;19470;49.322;7.218;2024-01-06T10:14:03;97931.44;;;11.74;81.29
18275;BME280;19470;49.322;7.218;2024-01-06T10:16:29;97934.09;;;11.59;83.62
18275;BME280;19470;49.322;7.218;2024-01-06T10:18:57;97923.78;;;11.83;81.96
18275;BME280;19470;49.322;7.218;2024-01-06T10:21:25;97931.56;;;12.44;78.90
18275;BME280;19470;49.322;7.218;2024-01-06T10:23:53;97927.22;;;11.88;81.76
18275;BME280;19470;49.322;7.218;2024-01-06T10:26:20;97927.47;;;11.20;82.04
18275;BME280;19470;49.322;7.218;2024-01-06T10:28:48;97925.88;;;11.24;84.02
18275;BME280;19470;49.322;7.218;2024-01-06T10:31:14;97925.38;;;11.53;82.29
18275;BME280;19470;49.322;7.218;2024-01-06T10:33:41;97921.38;;;11.45;82.49
18275;BME280;19470;49.322;7.218;2024-01-06T10:36:09;97925.34;;;11.84;80.62
18275;BME280;19470;49.322;7.218;2024-01-06T10:38:36;97923.75;;;11.52;81.97
18275;BME280;19470;49.322;7.218;2024-01-06T10:41:03;97923.19;;;12.06;78.73
18275;BME280;19470;49.322;7.218;2024-01-06T10:43:33;97918.97;;;11.90;79.78
18275;BME280;19470;49.322;7.218;2024-01-06T10:46:02;97929.84;;;11.98;79.06
18275;BME280;19470;49.322;7.218;2024-01-06T10:48:30;97932.19;;;10.93;83.44
18275;BME280;19470;49.322;7.218;2024-01-06T10:50:58;97927.22;;;11.83;81.12
18275;BME280;19470;49.322;7.218;2024-01-06T10:53:27;97931.03;;;12.37;77.44
18275;BME280;19470;49.322;7.218;2024-01-06T10:55:53;97925.34;;;11.43;80.02
18275;BME280;19470;49.322;7.218;2024-01-06T10:58:21;97922.69;;;11.84;81.63
18275;BME280;19470;49.322;7.218;2024-01-06T11:00:48;97921.09;;;11.52;81.74
18275;BME280;19470;49.322;7.218;2024-01-06T11:03:17;97926.28;;;12.39;78.73
18275;BME280;19470;49.322;7.218;2024-01-06T11:05:44;97922.72;;;12.64;76.56
18275;BME280;19470;49.322;7.218;2024-01-06T11:08:11;97914.69;;;13.23;74.42
18275;BME280;19470;49.322;7.218;2024-01-06T11:10:40;97921.13;;;12.63;76.76
18275;BME280;19470;49.322;7.218;2024-01-06T11:13:09;97913.06;;;12.23;78.01
18275;BME280;19470;49.322;7.218;2024-01-06T11:15:40;97921.38;;;11.50;83.14
18275;BME280;19470;49.322;7.218;2024-01-06T11:18:07;97913.69;;;11.54;82.21
18275;BME280;19470;49.322;7.218;2024-01-06T11:20:33;97904.09;;;11.99;79.35
18275;BME280;19470;49.322;7.218;2024-01-06T11:23:17;97909.78;;;12.52;77.95
18275;BME280;19470;49.322;7.218;2024-01-06T11:25:46;97919.25;;;11.73;80.02
18275;BME280;19470;49.322;7.218;2024-01-06T11:28:12;97908.50;;;12.89;76.81
18275;BME280;19470;49.322;7.218;2024-01-06T11:30:39;97916.34;;;11.64;78.87
18275;BME280;19470;49.322;7.218;2024-01-06T11:33:06;97903.25;;;12.24;78.01
18275;BME280;19470;49.322;7.218;2024-01-06T11:35:37;97905.09;;;12.18;78.37
18275;BME280;19470;49.322;7.218;2024-01-06T11:38:06;97900.75;;;12.48;77.57
18275;BME280;19470;49.322;7.218;2024-01-06T11:40:34;97905.97;;;12.63;77.01
18275;BME280;19470;49.322;7.218;2024-01-06T11:43:05;97905.72;;;12.60;76.93
18275;BME280;19470;49.322;7.218;2024-01-06T11:45:33;97911.41;;;12.33;77.81
18275;BME280;19470;49.322;7.218;2024-01-06T11:48:01;97907.72;;;12.34;77.02
18275;BME280;19470;49.322;7.218;2024-01-06T11:50:29;97915.19;;;12.21;79.48
18275;BME280;19470;49.322;7.218;2024-01-06T11:52:55;97898.56;;;12.60;77.75
18275;BME280;19470;49.322;7.218;2024-01-06T11:55:40;97902.91;;;12.41;77.39
18275;BME280;19470;49.322;7.218;2024-01-06T11:58:09;97909.56;;;12.38;76.58
18275;BME280;19470;49.322;7.218;2024-01-06T12:00:36;97908.28;;;12.20;78.10
18275;BME280;19470;49.322;7.218;2024-01-06T12:03:04;97907.28;;;12.06;78.11
18275;BME280;19470;49.322;7.218;2024-01-06T12:05:31;97903.09;;;12.54;76.42
18275;BME280;19470;49.322;7.218;2024-01-06T12:07:59;97903.44;;;12.43;74.87
18275;BME280;19470;49.322;7.218;2024-01-06T12:10:28;97912.06;;;12.69;75.13
18275;BME280;19470;49.322;7.218;2024-01-06T12:12:56;97902.16;;;12.85;72.53
18275;BME280;19470;49.322;7.218;2024-01-06T12:15:26;97901.81;;;12.42;73.79
18275;BME280;19470;49.322;7.218;2024-01-06T12:17:53;97899.28;;;12.11;75.09
18275;BME280;19470;49.322;7.218;2024-01-06T12:20:19;97896.53;;;12.47;74.96
18275;BME280;19470;49.322;7.218;2024-01-06T12:22:47;97899.22;;;12.86;72.91
18275;BME280;19470;49.322;7.218;2024-01-06T12:25:14;97893.59;;;12.93;73.70
18275;BME280;19470;49.322;7.218;2024-01-06T12:27:42;97894.41;;;13.33;71.27
18275;BME280;19470;49.322;7.218;2024-01-06T12:30:12;97893.19;;;12.75;73.68
18275;BME280;19470;49.322;7.218;2024-01-06T12:32:42;97891.56;;;12.74;73.51
18275;BME280;19470;49.322;7.218;2024-01-06T12:35:09;97883.72;;;13.38;70.59
18275;BME280;19470;49.322;7.218;2024-01-06T12:37:36;97877.72;;;13.56;69.99
18275;BME280;19470;49.322;7.218;2024-01-06T12:40:02;97874.56;;;12.81;71.78
18275;BME280;19470;49.322;7.218;2024-01-06T12:42:29;97874.31;;;12.77;73.14
18275;BME280;19470;49.322;7.218;2024-01-06T12:44:56;97880.91;;;12.79;72.40
18275;BME280;19470;49.322;7.218;2024-01-06T12:47:22;97881.19;;;12.78;72.87
18275;BME280;19470;49.322;7.218;2024-01-06T12:49:50;97889.44;;;13.55;68.21
18275;BME280;19470;49.322;7.218;2024-01-06T12:52:17;97887.78;;;12.36;72.96
18275;BME280;19470;49.322;7.218;2024-01-06T12:54:43;97885.44;;;12.24;74.67
18275;BME280;19470;49.322;7.218;2024-01-06T12:57:11;97887.47;;;12.48;72.47
18275;BME280;19470;49.322;7.218;2024-01-06T12:59:38;97893.69;;;12.28;72.64
18275;BME280;19470;49.322;7.218;2024-01-06T13:02:05;97890.94;;;12.93;71.24
18275;BME280;19470;49.322;7.218;2024-01-06T13:04:32;97892.06;;;13.21;70.62
18275;BME280;19470;49.322;7.218;2024-01-06T13:07:01;97899.31;;;13.10;72.20
18275;BME280;19470;49.322;7.218;2024-01-06T13:09:28;97899.19;;;13.30;70.20